Vermillion, Minnesota
Current Conditions -  °F | °C
As of 8:30 PM on Saturday 25 Oct 2014 (Local Time) from KSGS Reporting Station
Clear Clear  
Wind Chill: 54°   Ceiling: Unl
Heat Index: 54°   Visibility: 10mi
Dew Point: 25°   Wind: 5mph
Humidity: 33%   Direction: 280°W
Pressure: 30.04"   Gusts: NA
Location:  44.67°N, 92.97°W
Report Text: KSGS 260130Z AUTO 28004KT 10SM CLR 12/M04 A3004 RMK AO2 T01201040
Loading
Personal Weather Stations






























Interactive Weather Map
Tropical Storm Tracking
New forecast layout! Learn more

10-Day Weather Forecast

Advertisements
Track Severe Weather on mobile